Time;durP1;ratioP1;P1;durP2;ratioP2;P2;SDS_P1;SDS_P2;PMS_P1;PMS_P2;Temp;Humidity;BMP_temperature;BMP_pressure;BME280_temperature;BME280_humidity;BME280_pressure;Samples;Min_cycle;Max_cycle;Signal;HPM_P1;HPM_P2
2022/01/21 00:00:20;;;;;;;5.00;2.40;;;;;;;-1.44;75.67;100679.20;108617;1250;75337;-91
2022/01/21 00:03:08;;;;;;;6.90;3.00;;;;;;;-1.53;76.33;100684.88;109148;1249;73685;-88
2022/01/21 00:05:38;;;;;;;5.80;2.60;;;;;;;-1.48;76.14;100689.90;108819;1249;70822;-88
2022/01/21 00:08:07;;;;;;;4.60;2.10;;;;;;;-1.53;76.49;100698.70;107510;1250;72615;-87
2022/01/21 00:10:36;;;;;;;5.70;2.80;;;;;;;-1.61;76.87;100701.63;108115;1249;59531;-82
2022/01/21 00:13:15;;;;;;;3.70;2.30;;;;;;;-1.67;77.33;100705.34;108888;1248;60532;-84
2022/01/21 00:15:44;;;;;;;4.60;2.60;;;;;;;-1.61;76.73;100721.59;107943;1248;72504;-84
2022/01/21 00:18:13;;;;;;;5.40;3.30;;;;;;;-1.63;76.75;100718.90;107697;1249;72187;-85
2022/01/21 00:31:53;;;;;;;6.10;2.90;;;;;;;-1.77;77.94;100748.08;107487;1250;72897;-76
2022/01/21 00:34:22;;;;;;;4.80;2.90;;;;;;;-1.78;78.37;100756.12;107314;1248;70312;-81
2022/01/21 00:36:52;;;;;;;6.40;2.50;;;;;;;-1.82;78.59;100754.83;107206;1250;69648;-79
2022/01/21 00:39:24;;;;;;;7.90;3.60;;;;;;;-1.77;79.27;100761.39;107373;1249;73384;-78
2022/01/21 00:42:14;;;;;;;11.20;5.10;;;;;;;-1.83;79.62;100760.84;107141;1249;61794;-78
2022/01/21 00:44:43;;;;;;;8.70;4.10;;;;;;;-1.85;78.92;100762.77;107240;1250;61210;-81
2022/01/21 00:47:12;;;;;;;8.70;4.40;;;;;;;-1.85;79.16;100773.68;107366;1249;76273;-78
2022/01/21 00:49:40;;;;;;;12.00;4.50;;;;;;;-1.86;79.63;100794.54;107207;1250;73058;-79
2022/01/21 00:52:10;;;;;;;11.40;4.80;;;;;;;-1.94;80.65;100800.65;107180;1250;71669;-81
2022/01/21 00:54:40;;;;;;;7.30;3.30;;;;;;;-1.87;79.40;100799.16;107398;1248;73714;-79
2022/01/21 00:57:09;;;;;;;7.60;3.90;;;;;;;-1.82;79.81;100795.65;107481;1250;59473;-78
2022/01/21 00:59:39;;;;;;;6.60;4.10;;;;;;;-1.88;79.22;100796.44;107488;1248;60515;-76
2022/01/21 01:02:08;;;;;;;5.50;3.10;;;;;;;-1.89;78.93;100795.95;107338;1250;73696;-79
2022/01/21 01:04:38;;;;;;;6.80;3.40;;;;;;;-1.83;78.67;100794.46;107342;1249;72057;-78
2022/01/21 01:07:07;;;;;;;10.00;5.00;;;;;;;-1.83;79.61;100791.08;107321;1250;71953;-77
2022/01/21 01:09:36;;;;;;;7.40;4.30;;;;;;;-1.87;81.56;100790.29;107361;1250;72444;-79
2022/01/21 01:20:13;;;;;;;5.80;3.50;;;;;;;-1.82;78.32;100760.64;107189;1250;70039;-79
2022/01/21 01:28:09;;;;;;;5.40;2.90;;;;;;;-1.83;78.26;100759.83;107233;1250;60279;-79
2022/01/21 01:30:39;;;;;;;3.20;1.70;;;;;;;-1.85;77.44;100773.02;107169;1250;61267;-80
2022/01/21 01:33:10;;;;;;;3.80;2.40;;;;;;;-1.83;77.74;100747.18;107377;1250;74231;-79
2022/01/21 01:35:40;;;;;;;4.00;2.40;;;;;;;-1.87;79.55;100740.27;107294;1250;71707;-77
2022/01/21 01:40:47;;;;;;;8.60;4.60;;;;;;;-1.86;78.81;100726.77;107959;1250;73139;-81
2022/01/21 01:51:23;;;;;;;8.60;5.20;;;;;;;-2.02;81.54;100712.23;107609;1250;72557;-81
2022/01/21 01:54:13;;;;;;;5.30;2.80;;;;;;;-1.97;80.32;100721.34;107373;1252;68726;-82
2022/01/21 01:56:49;;;;;;;8.30;4.30;;;;;;;-1.89;79.63;100721.34;107514;1250;71994;-81
2022/01/21 01:59:19;;;;;;;8.10;4.60;;;;;;;-1.96;79.40;100719.10;107465;1250;60273;-80
2022/01/21 02:02:12;;;;;;;9.80;5.70;;;;;;;-2.00;80.30;100715.27;107373;1249;62572;-80
2022/01/21 02:04:44;;;;;;;6.10;3.70;;;;;;;-2.04;80.27;100725.76;107350;1250;73315;-79
2022/01/21 02:07:14;;;;;;;9.60;4.80;;;;;;;-1.98;78.83;100732.80;108401;1250;73375;-81
2022/01/21 02:09:44;;;;;;;8.90;4.90;;;;;;;-2.01;79.51;100743.27;107567;1249;68611;-82
2022/01/21 02:12:13;;;;;;;8.50;4.20;;;;;;;-2.00;79.04;100741.88;107554;1250;73863;-80
2022/01/21 02:14:49;;;;;;;7.30;4.10;;;;;;;-1.99;78.45;100739.48;107334;1249;59614;-82
2022/01/21 02:23:07;;;;;;;8.20;3.90;;;;;;;-2.20;78.99;100738.19;107067;1248;70250;-82
2022/01/21 02:25:36;;;;;;;7.60;4.50;;;;;;;-2.27;78.41;100734.58;107560;1250;71523;-83
2022/01/21 02:28:14;;;;;;;10.20;4.20;;;;;;;-2.35;78.49;100737.11;107597;1248;75393;-86
2022/01/21 02:30:58;;;;;;;8.40;4.40;;;;;;;-2.41;78.08;100739.10;107706;1247;61636;-82
2022/01/21 02:33:27;;;;;;;8.00;5.00;;;;;;;-2.49;78.15;100744.20;107462;1250;59625;-82
2022/01/21 02:35:58;;;;;;;8.20;5.00;;;;;;;-2.59;79.51;100745.56;107599;1247;74410;-79
2022/01/21 02:38:26;;;;;;;9.70;5.30;;;;;;;-2.68;80.72;100747.61;107565;1250;72637;-81
2022/01/21 02:40:55;;;;;;;14.90;6.30;;;;;;;-2.75;81.94;100751.98;108103;1247;70678;-80
2022/01/21 02:43:25;;;;;;;10.50;6.30;;;;;;;-2.85;81.19;100747.22;108089;1248;74172;-81
2022/01/21 02:45:54;;;;;;;13.50;6.40;;;;;;;-2.97;80.88;100752.17;107790;1247;61456;-83
2022/01/21 02:48:23;;;;;;;9.00;5.60;;;;;;;-3.07;80.89;100751.83;107384;1248;60222;-83
2022/01/21 02:50:54;;;;;;;9.90;5.60;;;;;;;-3.16;81.47;100751.29;107578;1248;73057;-81
2022/01/21 02:53:38;;;;;;;8.80;5.80;;;;;;;-3.29;79.38;100754.88;107498;1248;69630;-83
2022/01/21 02:56:10;;;;;;;11.40;5.70;;;;;;;-3.45;78.55;100762.09;107670;1248;70522;-82
2022/01/21 02:58:40;;;;;;;9.10;5.10;;;;;;;-3.54;78.16;100763.58;107448;1248;73969;-80
2022/01/21 03:01:09;;;;;;;10.40;5.50;;;;;;;-3.59;78.21;100760.26;107311;1248;62424;-83
2022/01/21 03:03:40;;;;;;;9.20;5.20;;;;;;;-3.73;78.19;100761.27;107579;1248;59700;-82
2022/01/21 03:06:10;;;;;;;9.10;4.70;;;;;;;-3.87;80.03;100764.68;107358;1250;72490;-79
2022/01/21 03:08:39;;;;;;;11.30;5.30;;;;;;;-3.98;78.94;100757.84;107627;1247;69537;-81
2022/01/21 03:11:09;;;;;;;11.00;5.70;;;;;;;-4.13;79.03;100759.55;107619;1247;68695;-81
2022/01/21 03:13:40;;;;;;;12.80;5.80;;;;;;;-4.28;78.89;100762.60;107484;1250;73942;-82
2022/01/21 03:16:09;;;;;;;11.70;6.20;;;;;;;-4.37;80.25;100765.92;107552;1249;61789;-82
2022/01/21 03:18:39;;;;;;;9.30;5.50;;;;;;;-4.43;79.57;100768.21;107569;1247;61803;-80
2022/01/21 03:21:15;;;;;;;10.30;5.50;;;;;;;-4.48;79.75;100761.78;107268;1250;72740;-81
2022/01/21 03:23:48;;;;;;;12.60;6.00;;;;;;;-4.49;79.55;100765.20;107679;1247;68773;-83
2022/01/21 03:26:22;;;;;;;14.00;5.50;;;;;;;-4.51;79.56;100765.40;107440;1251;69107;-82
2022/01/21 03:28:56;;;;;;;9.40;5.40;;;;;;;-4.53;79.31;100769.16;107666;1250;71915;-81
2022/01/21 03:31:25;;;;;;;9.70;5.50;;;;;;;-4.56;79.38;100773.41;107052;1250;419807;-81
2022/01/21 03:33:55;;;;;;;12.30;6.50;;;;;;;-4.61;78.87;100767.52;107351;1250;60543;-84
2022/01/21 03:36:24;;;;;;;14.40;6.10;;;;;;;-4.68;78.85;100767.76;107538;1250;75264;-80
2022/01/21 03:38:53;;;;;;;10.80;6.00;;;;;;;-4.75;78.90;100767.48;107502;1249;72569;-83
2022/01/21 03:41:23;;;;;;;10.70;5.60;;;;;;;-4.81;78.92;100767.02;107369;1248;68545;-82
2022/01/21 03:43:53;;;;;;;11.30;6.10;;;;;;;-4.86;79.07;100774.20;107450;1250;72768;-83
2022/01/21 03:46:22;;;;;;;12.10;6.60;;;;;;;-4.90;78.58;100783.23;107385;1247;59511;-84
2022/01/21 03:48:51;;;;;;;13.40;6.10;;;;;;;-4.93;78.66;100782.92;107535;1247;60525;-83
2022/01/21 03:51:21;;;;;;;14.00;6.60;;;;;;;-4.92;79.13;100779.02;107285;1248;74447;-83
2022/01/21 03:53:52;;;;;;;9.60;5.00;;;;;;;-4.95;79.26;100775.63;107325;1250;71688;-84
2022/01/21 03:56:22;;;;;;;11.20;5.50;;;;;;;-4.98;78.79;100781.77;107370;1251;69632;-84
2022/01/21 03:58:55;;;;;;;8.60;5.20;;;;;;;-5.03;78.05;100784.18;107452;1247;73917;-85
2022/01/21 04:01:25;;;;;;;10.30;5.00;;;;;;;-5.09;77.61;100782.52;107394;1250;59464;-83
2022/01/21 04:03:54;;;;;;;11.90;5.50;;;;;;;-5.23;77.23;100782.12;107349;1250;62237;-87
2022/01/21 04:06:24;;;;;;;10.50;5.50;;;;;;;-5.36;77.08;100779.32;107401;1250;76019;-87
2022/01/21 04:08:53;;;;;;;9.20;5.20;;;;;;;-5.46;77.53;100782.59;107562;1250;70962;-83
2022/01/21 04:11:22;;;;;;;9.80;5.40;;;;;;;-5.55;77.78;100791.64;107626;1250;69580;-86
2022/01/21 04:13:53;;;;;;;7.10;4.10;;;;;;;-5.60;77.28;100798.62;107887;1250;72329;-84
2022/01/21 04:16:22;;;;;;;11.60;5.10;;;;;;;-5.61;77.32;100795.40;107609;1250;59686;-86
2022/01/21 04:18:52;;;;;;;8.90;5.20;;;;;;;-5.56;77.72;100800.46;107389;1250;62965;-84
2022/01/21 04:21:21;;;;;;;14.70;6.40;;;;;;;-5.57;77.34;100794.87;107315;1250;72987;-86
2022/01/21 04:23:52;;;;;;;11.50;5.80;;;;;;;-5.60;78.13;100802.69;107502;1249;71420;-85
2022/01/21 04:26:29;;;;;;;6.30;3.30;;;;;;;-5.61;78.73;100806.09;107309;1250;69683;-84
2022/01/21 04:29:11;;;;;;;10.20;5.60;;;;;;;-5.63;79.73;100812.05;107426;1249;73057;-81
2022/01/21 04:31:44;;;;;;;10.90;6.30;;;;;;;-5.69;78.98;100813.59;108535;1249;59489;-81
2022/01/21 04:34:14;;;;;;;11.30;6.20;;;;;;;-5.77;79.59;100818.04;108497;1250;60526;-86
2022/01/21 04:36:44;;;;;;;12.60;6.00;;;;;;;-5.83;80.03;100818.39;107963;1250;76009;-83
2022/01/21 04:39:20;;;;;;;12.00;4.50;;;;;;;-5.88;79.00;100821.30;107751;1248;71596;-84
2022/01/21 04:47:40;;;;;;;10.40;5.40;;;;;;;-6.10;79.44;100811.38;107352;1250;60433;-75
2022/01/21 04:50:14;;;;;;;7.70;4.30;;;;;;;-6.18;79.47;100814.46;107187;1250;60209;-83
2022/01/21 04:52:49;;;;;;;15.10;6.10;;;;;;;-6.27;79.33;100813.97;107400;1249;72681;-83
2022/01/21 04:55:35;;;;;;;20.80;10.50;;;;;;;-6.31;81.80;100817.71;107381;1250;69355;-80
2022/01/21 04:58:04;;;;;;;22.70;10.80;;;;;;;-6.35;81.02;100823.14;107493;1250;69723;-82
2022/01/21 05:00:34;;;;;;;18.10;8.80;;;;;;;-6.37;80.74;100825.67;107206;1250;73635;-82
2022/01/21 05:03:05;;;;;;;18.30;9.70;;;;;;;-6.36;81.15;100822.45;107232;1250;59632;-82
2022/01/21 05:05:36;;;;;;;19.10;9.40;;;;;;;-6.38;81.09;100823.98;107398;1250;61240;-81
2022/01/21 05:08:09;;;;;;;21.50;9.70;;;;;;;-6.38;81.09;100827.88;107834;1250;74449;-82
2022/01/21 05:10:38;;;;;;;23.50;11.50;;;;;;;-6.42;80.78;100833.81;107873;1250;72954;-81
2022/01/21 05:13:07;;;;;;;22.70;12.10;;;;;;;-6.42;80.81;100834.83;107447;1250;70825;-83
2022/01/21 05:16:45;;;;;;;;;;;;;;;;;;;;;
2022/01/21 05:19:02;;;;;;;25.10;12.60;;;;;;;-6.48;80.25;100841.98;107347;1250;61698;-80
2022/01/21 05:22:20;;;;;;;27.30;11.80;;;;;;;-6.56;80.38;100846.20;107523;1250;62192;-82
2022/01/21 05:24:52;;;;;;;25.20;10.60;;;;;;;-6.60;80.74;100844.68;107498;1249;73446;-84
2022/01/21 05:27:21;;;;;;;19.00;9.10;;;;;;;-6.63;79.59;100842.48;107439;1250;72269;-80
2022/01/21 05:29:52;;;;;;;18.70;8.90;;;;;;;-6.56;78.90;100841.45;107619;1250;69484;-84
2022/01/21 05:33:02;;;;;;;17.40;8.10;;;;;;;-6.31;78.55;100842.29;107214;1251;73220;-81
2022/01/21 05:36:15;;;;;;;10.60;5.00;;;;;;;-6.06;77.42;100842.92;107281;1250;60295;-82
2022/01/21 05:39:16;;;;;;;12.70;5.70;;;;;;;-5.84;76.42;100836.20;107577;1250;58890;-83
2022/01/21 05:41:56;;;;;;;10.50;5.00;;;;;;;-5.68;75.22;100841.08;107432;1250;73366;-83
2022/01/21 05:47:35;;;;;;;13.00;5.80;;;;;;;-5.43;74.94;100853.36;107465;1250;68892;-79
2022/01/21 05:50:23;;;;;;;8.40;4.60;;;;;;;-5.36;74.04;100859.61;107345;1249;73262;-81
2022/01/21 05:53:04;;;;;;;10.40;5.50;;;;;;;-5.31;73.88;100868.58;107348;1250;59629;-80
2022/01/21 05:55:50;;;;;;;9.50;5.40;;;;;;;-5.26;73.18;100873.98;107312;1250;58899;-82
2022/01/21 05:58:35;;;;;;;12.10;6.10;;;;;;;-5.20;72.15;100880.25;107543;1249;72900;-83
2022/01/21 06:01:04;;;;;;;11.70;5.80;;;;;;;-5.12;72.94;100879.86;107467;1250;69680;-82
2022/01/21 06:03:34;;;;;;;14.00;6.50;;;;;;;-5.05;72.68;100880.84;107341;1250;69804;-83
2022/01/21 06:06:03;;;;;;;11.40;5.80;;;;;;;-4.96;72.90;100881.13;107291;1250;72555;-76
2022/01/21 06:08:32;;;;;;;12.80;6.10;;;;;;;-4.89;72.02;100882.79;107467;1250;60429;-81
2022/01/21 06:11:04;;;;;;;11.20;5.90;;;;;;;-4.84;70.02;100884.96;107646;1250;59680;-78
2022/01/21 06:13:34;;;;;;;19.10;9.00;;;;;;;-4.82;70.16;100887.83;107794;1247;74354;-80
2022/01/21 06:16:04;;;;;;;21.10;11.30;;;;;;;-4.88;72.21;100892.80;107297;1250;71070;-82
2022/01/21 06:18:33;;;;;;;18.80;9.90;;;;;;;-5.00;73.83;100893.73;107455;1250;69638;-78
2022/01/21 06:21:02;;;;;;;19.40;9.60;;;;;;;-5.04;73.93;100909.36;107358;1250;73637;-82
2022/01/21 06:23:31;;;;;;;13.70;9.10;;;;;;;-5.09;74.07;100920.61;107520;1250;60020;-81
2022/01/21 06:26:00;;;;;;;17.10;9.80;;;;;;;-5.16;74.31;100921.31;107515;1250;59783;-77
2022/01/21 06:28:29;;;;;;;17.50;10.00;;;;;;;-5.20;74.26;100924.91;107244;1250;72275;-75
2022/01/21 06:30:59;;;;;;;14.60;8.90;;;;;;;-5.22;73.95;100919.65;107297;1251;72508;-78
2022/01/21 06:33:28;;;;;;;19.60;9.20;;;;;;;-5.25;73.71;100913.89;107537;1248;70814;-78
2022/01/21 06:35:57;;;;;;;15.50;8.50;;;;;;;-5.26;73.50;100918.30;107493;1247;71964;-79
2022/01/21 06:38:27;;;;;;;16.10;7.70;;;;;;;-5.27;73.43;100924.94;107292;1250;60574;-81
2022/01/21 06:40:56;;;;;;;17.60;7.90;;;;;;;-5.28;72.84;100926.63;107603;1247;60691;-85
2022/01/21 06:43:26;;;;;;;20.60;9.30;;;;;;;-5.25;73.08;100923.91;107563;1248;74237;-83
2022/01/21 06:45:55;;;;;;;16.10;8.10;;;;;;;-5.19;73.46;100924.22;107433;1247;72587;-87
2022/01/21 06:48:25;;;;;;;15.40;8.00;;;;;;;-5.13;73.34;100925.38;107720;1248;71349;-86
2022/01/21 06:50:54;;;;;;;18.00;9.60;;;;;;;-5.06;73.43;100923.48;107641;1248;73515;-82
2022/01/21 06:53:23;;;;;;;17.10;9.30;;;;;;;-4.97;73.56;100925.48;107320;1251;59604;-77
2022/01/21 06:55:53;;;;;;;19.30;9.40;;;;;;;-4.88;73.32;100928.47;107525;1247;59698;-78
2022/01/21 06:58:22;;;;;;;18.40;9.40;;;;;;;-4.80;73.12;100932.17;107529;1248;73396;-75
2022/01/21 07:00:51;;;;;;;17.30;9.40;;;;;;;-4.70;72.91;100927.36;107586;1247;72160;-77
2022/01/21 07:03:20;;;;;;;14.80;8.30;;;;;;;-4.59;73.14;100929.14;107332;1250;68591;-79
2022/01/21 07:05:50;;;;;;;15.90;9.30;;;;;;;-4.50;71.93;100929.60;107585;1247;72348;-79
2022/01/21 07:08:19;;;;;;;23.90;10.30;;;;;;;-4.42;71.64;100932.95;107382;1249;59581;-75
2022/01/21 07:10:49;;;;;;;21.50;11.90;;;;;;;-4.34;71.02;100932.89;107579;1250;61320;-77
2022/01/21 07:13:18;;;;;;;21.40;10.90;;;;;;;-4.28;71.04;100929.42;107535;1249;72357;-78
2022/01/21 07:15:47;;;;;;;19.70;9.40;;;;;;;-4.20;70.26;100933.45;107469;1250;69436;-80
2022/01/21 07:18:16;;;;;;;18.80;9.40;;;;;;;-4.05;70.15;100934.35;107483;1250;69706;-76
2022/01/21 07:20:45;;;;;;;12.30;6.60;;;;;;;-3.82;69.52;100933.79;107325;1251;71996;-78
2022/01/21 07:23:14;;;;;;;18.40;7.60;;;;;;;-3.55;68.69;100935.73;107599;1248;60356;-76
2022/01/21 07:25:43;;;;;;;13.60;8.30;;;;;;;-3.37;68.43;100933.30;107935;1247;61587;-75
2022/01/21 07:28:13;;;;;;;16.70;9.10;;;;;;;-3.27;66.46;100929.96;108118;1248;75048;-74
2022/01/21 07:30:41;;;;;;;11.60;6.00;;;;;;;-3.19;66.63;100934.46;107716;1250;73023;-78
2022/01/21 07:33:11;;;;;;;19.50;9.20;;;;;;;-3.13;65.26;100946.31;107422;1248;70934;-76
2022/01/21 07:35:41;;;;;;;15.00;8.60;;;;;;;-3.13;65.14;100943.92;107170;1251;75674;-74
2022/01/21 07:38:12;;;;;;;15.00;7.30;;;;;;;-3.02;63.33;100952.14;107370;1250;59335;-77
2022/01/21 07:40:42;;;;;;;24.70;11.70;;;;;;;-2.90;64.38;100947.55;107417;1250;61271;-77
2022/01/21 07:43:11;;;;;;;14.90;8.70;;;;;;;-2.81;63.91;100948.11;107101;1251;73306;-77
2022/01/21 07:45:41;;;;;;;18.70;7.80;;;;;;;-2.75;62.69;100946.50;106980;1251;70804;-77
2022/01/21 07:48:10;;;;;;;15.10;7.70;;;;;;;-2.68;61.83;100947.77;107328;1247;70519;-79
2022/01/21 07:50:39;;;;;;;5.40;3.20;;;;;;;-2.60;60.81;100947.48;107312;1247;73613;-76
2022/01/21 07:53:08;;;;;;;16.10;8.10;;;;;;;-2.51;60.44;100944.80;107278;1247;60883;-78
2022/01/21 07:55:38;;;;;;;14.70;6.70;;;;;;;-2.40;60.28;100952.64;107126;1251;61883;-79
2022/01/21 07:58:06;;;;;;;13.20;7.00;;;;;;;-2.29;59.95;100951.45;107176;1249;75410;-79
2022/01/21 08:00:35;;;;;;;14.70;7.10;;;;;;;-2.20;58.74;100951.81;107233;1250;71399;-76
2022/01/21 08:03:04;;;;;;;11.90;6.10;;;;;;;-2.12;58.75;100952.02;107120;1251;69596;-80
2022/01/21 08:05:34;;;;;;;8.50;4.30;;;;;;;-2.04;58.19;100961.79;107523;1248;73579;-87
2022/01/21 08:08:04;;;;;;;10.60;5.70;;;;;;;-1.95;57.68;100962.69;107173;1251;62634;-80
2022/01/21 08:10:33;;;;;;;12.40;5.70;;;;;;;-1.89;57.80;100971.13;107135;1248;62702;-80
2022/01/21 08:13:02;;;;;;;12.00;5.90;;;;;;;-1.78;58.23;100975.19;107177;1251;75977;-81
2022/01/21 08:15:32;;;;;;;12.80;7.30;;;;;;;-1.65;58.19;100977.87;107338;1251;72177;-77
2022/01/21 08:18:01;;;;;;;15.70;8.40;;;;;;;-1.60;57.91;100984.24;107243;1250;71724;-81
2022/01/21 08:20:30;;;;;;;11.80;6.60;;;;;;;-1.62;57.39;100984.48;107348;1250;71349;-78
2022/01/21 08:22:59;;;;;;;17.10;7.70;;;;;;;-1.53;57.91;100982.95;107363;1248;60688;-78
2022/01/21 08:25:28;;;;;;;12.00;5.70;;;;;;;-1.49;57.12;100986.96;107134;1250;60042;-79
2022/01/21 08:27:57;;;;;;;14.10;6.10;;;;;;;-1.49;57.39;100987.66;107287;1247;73579;-76
2022/01/21 08:30:27;;;;;;;14.90;8.10;;;;;;;-1.44;56.71;100988.92;107383;1247;73086;-80
2022/01/21 08:32:56;;;;;;;13.60;6.70;;;;;;;-1.39;55.89;100993.45;107185;1250;70610;-78
2022/01/21 08:35:25;;;;;;;10.50;5.10;;;;;;;-1.31;55.84;100994.51;107319;1251;74499;-79
2022/01/21 08:37:54;;;;;;;12.80;5.50;;;;;;;-1.29;54.58;100989.67;107646;1248;59578;-74
2022/01/21 08:40:24;;;;;;;10.40;5.60;;;;;;;-1.26;54.54;100991.48;107482;1251;59692;-79
2022/01/21 08:42:53;;;;;;;12.50;6.90;;;;;;;-1.20;54.33;100995.81;107345;1251;73608;-83
2022/01/21 08:45:23;;;;;;;12.80;6.90;;;;;;;-1.13;53.80;100999.10;107315;1251;70790;-80
2022/01/21 08:47:52;;;;;;;12.30;6.00;;;;;;;-1.05;53.95;100984.60;107718;1246;71464;-79
2022/01/21 08:50:22;;;;;;;16.30;6.60;;;;;;;-0.92;53.50;100985.02;107816;1250;71530;-84
2022/01/21 08:52:55;;;;;;;8.20;4.10;;;;;;;-0.80;52.43;100985.60;107747;1247;59840;-87
2022/01/21 08:55:24;;;;;;;;;;;;;;;-0.71;50.43;100986.46;107525;1250;59445;-82
2022/01/21 08:57:53;;;;;;;13.70;5.50;;;;;;;-0.70;52.00;100985.22;107395;1250;72617;-84
2022/01/21 09:00:22;;;;;;;9.20;5.00;;;;;;;-0.61;51.52;100984.71;107609;1248;69336;-83
2022/01/21 09:02:53;;;;;;;12.40;5.70;;;;;;;-0.54;51.30;100982.50;107767;1248;71483;-81
2022/01/21 09:05:23;;;;;;;7.80;3.80;;;;;;;-0.45;49.88;100980.59;107954;1247;74461;-79
2022/01/21 09:07:52;;;;;;;7.50;3.80;;;;;;;-0.35;50.75;100978.30;107415;1248;61189;-79
2022/01/21 09:10:21;;;;;;;11.00;5.20;;;;;;;-0.27;49.87;100975.19;107663;1248;61643;-81
2022/01/21 09:12:50;;;;;;;10.60;4.60;;;;;;;-0.19;49.14;100978.25;107391;1249;75019;-83
2022/01/21 09:15:24;;;;;;;9.80;4.20;;;;;;;-0.14;49.38;100973.87;107233;1251;73742;-76
2022/01/21 09:18:02;;;;;;;6.40;3.60;;;;;;;-0.09;48.76;100971.52;107443;1247;70903;-80
2022/01/21 09:20:37;;;;;;;7.70;4.00;;;;;;;-0.11;48.65;100970.02;107330;1250;72629;-82
2022/01/21 09:23:06;;;;;;;9.00;4.30;;;;;;;-0.12;48.87;100973.64;107405;1251;59425;-79
2022/01/21 09:25:36;;;;;;;6.90;3.30;;;;;;;-0.09;48.58;100967.92;107334;1250;59680;-79
2022/01/21 09:28:05;;;;;;;8.30;4.50;;;;;;;-0.06;49.20;100964.92;107255;1251;73613;-81
2022/01/21 09:30:34;;;;;;;11.30;5.80;;;;;;;-0.01;49.08;100956.09;107332;1251;69936;-80
2022/01/21 09:33:03;;;;;;;10.30;4.90;;;;;;;0.06;49.56;100954.89;107261;1250;68716;-84
2022/01/21 09:35:32;;;;;;;8.60;5.30;;;;;;;0.15;49.24;100954.30;107086;1251;72187;-81
2022/01/21 09:38:01;;;;;;;10.80;4.70;;;;;;;0.27;49.39;100946.48;107376;1247;59644;-83
2022/01/21 09:40:48;;;;;;;10.60;4.40;;;;;;;0.38;49.47;100950.48;107247;1251;59782;-85
2022/01/21 09:43:20;;;;;;;8.90;4.80;;;;;;;0.52;48.10;100947.52;107365;1251;72936;-82
2022/01/21 09:45:53;;;;;;;12.40;5.40;;;;;;;0.56;48.48;100943.96;107361;1250;72816;-84
2022/01/21 09:48:30;;;;;;;11.00;3.60;;;;;;;0.70;47.74;100945.31;107288;1250;71961;-80
2022/01/21 09:51:00;;;;;;;5.50;2.70;;;;;;;0.81;47.88;100935.22;107273;1251;73555;-77
2022/01/21 09:53:33;;;;;;;8.20;3.10;;;;;;;0.89;47.20;100929.67;107198;1250;61283;-74
2022/01/21 09:56:05;;;;;;;;;;;;;;;0.95;45.75;100930.89;107470;1251;59595;-79
2022/01/21 09:58:34;;;;;;;7.90;3.80;;;;;;;1.00;46.04;100926.80;107573;1247;73268;-81
2022/01/21 10:01:06;;;;;;;7.90;3.50;;;;;;;1.09;45.94;100924.97;107640;1248;71134;-78
2022/01/21 10:03:36;;;;;;;6.60;3.00;;;;;;;1.20;45.08;100922.77;107815;1248;68702;-81
2022/01/21 10:06:06;;;;;;;9.20;4.50;;;;;;;1.21;44.78;100921.72;107592;1251;71232;-78
2022/01/21 10:08:39;;;;;;;5.00;2.90;;;;;;;1.21;45.87;100918.95;107576;1248;60477;-82
2022/01/21 10:11:09;;;;;;;;;;;;;;;1.24;44.40;100916.47;107585;1248;60262;-79
2022/01/21 10:13:38;;;;;;;;;;;;;;;1.20;45.46;100911.79;107714;1247;71173;-79
2022/01/21 10:16:09;;;;;;;;;;;;;;;1.27;44.68;100913.45;107757;1250;70668;-75
2022/01/21 10:18:38;;;;;;;;;;;;;;;1.17;43.85;100902.09;107913;1248;67962;-77
2022/01/21 10:21:12;;;;;;;;;;;;;;;1.22;44.50;100901.08;107774;1250;73924;-82
2022/01/21 10:23:42;;;;;;;;;;;;;;;1.31;42.91;100898.23;107653;1247;60468;-77
2022/01/21 10:26:14;;;;;;;;;;;;;;;1.30;42.92;100894.30;107251;1250;61616;-77
2022/01/21 10:28:44;;;;;;;;;;;;;;;1.39;44.52;100891.81;107355;1250;74986;-80
2022/01/21 10:31:15;;;;;;;;;;;;;;;1.45;44.06;100893.50;107316;1247;72261;-77
2022/01/21 10:33:51;;;;;;;;;;;;;;;1.51;43.75;100890.91;107525;1248;71881;-77
2022/01/21 10:36:29;;;;;;;;;;;;;;;1.58;43.71;100894.98;107519;1248;71338;-75
2022/01/21 10:39:07;;;;;;;;;;;;;;;1.65;42.94;100892.35;107563;1248;60510;-77
2022/01/21 10:41:40;;;;;;;;;;;;;;;1.78;43.36;100885.90;107350;1247;59763;-79
2022/01/21 10:44:14;;;;;;;;;;;;;;;2.00;42.94;100887.23;107417;1247;74021;-84
2022/01/21 10:46:59;;;;;;;;;;;;;;;2.21;43.07;100887.89;107284;1251;70323;-78
2022/01/21 10:49:28;;;;;;;;;;;;;;;2.40;42.53;100881.90;107321;1249;69829;-83
2022/01/21 10:51:57;;;;;;;;;;;;;;;2.65;41.45;100878.21;107493;1248;72345;-83
2022/01/21 10:54:30;;;;;;;;;;;;;;;2.64;42.08;100881.16;107604;1247;61027;-79
2022/01/21 10:57:13;;;;;;;;;;;;;;;2.75;42.57;100878.35;107343;1249;60844;-72
2022/01/21 10:59:53;;;;;;;;;;;;;;;3.01;40.33;100875.85;107221;1251;75269;-74
2022/01/21 11:02:36;;;;;;;;;;;;;;;3.06;39.41;100875.28;107388;1248;69985;-73
2022/01/21 11:05:14;;;;;;;;;;;;;;;2.98;38.81;100867.34;107378;1249;69825;-83
2022/01/21 11:07:51;;;;;;;;;;;;;;;3.09;39.07;100866.06;107537;1247;72027;-85
2022/01/21 11:10:33;;;;;;;;;;;;;;;3.33;37.90;100861.16;107493;1248;60276;-75
2022/01/21 11:13:18;;;;;;;;;;;;;;;3.16;39.60;100859.27;107465;1248;59113;-81
2022/01/21 11:16:12;;;;;;;;;;;;;;;3.18;38.51;100850.22;107229;1251;71741;-79
2022/01/21 11:19:11;;;;;;;;;;;;;;;3.59;37.18;100838.42;107210;1250;71662;-78
2022/01/21 11:21:56;;;;;;;;;;;;;;;3.40;38.71;100840.56;107336;1248;68691;-80
2022/01/21 11:24:25;;;;;;;;;;;;;;;3.68;38.27;100834.77;107521;1247;74927;-75
2022/01/21 11:27:16;;;;;;;;;;;;;;;3.77;37.10;100844.18;107464;1248;59494;-73
2022/01/21 11:29:46;;;;;;;;;;;;;;;3.74;35.78;100839.16;107324;1248;60429;-73
2022/01/21 11:32:15;;;;;;;;;;;;;;;3.79;36.30;100833.77;107326;1247;73055;-68
2022/01/21 11:34:45;;;;;;;;;;;;;;;3.96;35.63;100839.05;107264;1251;71383;-76
2022/01/21 11:37:13;;;;;;;;;;;;;;;3.95;35.87;100832.41;107428;1247;71536;-76
2022/01/21 11:39:42;;;;;;;;;;;;;;;4.21;35.37;100824.91;107458;1245;72652;-76
2022/01/21 11:42:12;;;;;;;;;;;;;;;4.18;35.58;100823.85;107118;1250;59598;-77
2022/01/21 11:44:51;;;;;;;;;;;;;;;4.54;35.60;100824.98;107363;1247;61839;-77
2022/01/21 11:47:47;;;;;;;;;;;;;;;4.58;33.55;100814.44;107483;1247;74934;-78
2022/01/21 11:50:18;;;;;;;;;;;;;;;4.78;34.60;100814.91;107117;1248;71767;-76
2022/01/21 11:52:47;;;;;;;;;;;;;;;4.82;32.98;100813.85;107512;1247;70107;-75
2022/01/21 11:55:37;;;;;;;;;;;;;;;5.14;32.25;100807.48;107389;1248;73042;-74
2022/01/21 11:58:23;;;;;;;;;;;;;;;5.15;32.14;100808.67;107489;1247;59077;-75
2022/01/21 12:00:53;;;;;;;;;;;;;;;5.22;30.77;100804.67;107490;1248;60552;-75
2022/01/21 12:03:25;;;;;;;;;;;;;;;5.12;31.58;100804.33;107463;1248;71597;-75
2022/01/21 12:05:54;;;;;;;;;;;;;;;5.21;31.59;100799.92;107520;1247;71444;-75
2022/01/21 12:08:56;;;;;;;;;;;;;;;5.26;31.57;100804.85;107461;1247;70881;-79
2022/01/21 12:11:38;;;;;;;;;;;;;;;5.33;31.45;100799.52;107241;1248;73579;-79
2022/01/21 12:14:51;;;;;;;;;;;;;;;5.46;31.52;100802.14;107465;1250;59945;-80
2022/01/21 12:17:46;;;;;;;;;;;;;;;5.83;28.64;100800.10;106810;1254;61231;-75
2022/01/21 12:20:14;;;;;;;;;;;;;;;5.77;28.67;100803.31;107570;1247;75961;-80
2022/01/21 12:23:12;;;;;;;;;;;;;;;5.77;28.36;100792.96;107526;1246;72761;-80
2022/01/21 12:26:14;;;;;;;;;;;;;;;5.86;29.80;100789.41;107505;1247;70931;-76
2022/01/21 12:28:47;;;;;;;;;;;;;;;6.07;29.71;100781.27;107447;1247;72590;-77
2022/01/21 12:32:14;;;;;;;8.90;3.00;;;;;;;6.94;26.28;100782.60;104255;1282;600808;-81
2022/01/21 12:35:36;;;;;;;8.40;3.00;;;;;;;6.24;27.37;100773.08;106259;1257;60947;-82
2022/01/21 12:41:24;;;;;;;9.40;4.20;;;;;;;6.39;28.07;100769.36;106651;1256;73160;-76
2022/01/21 12:43:58;;;;;;;6.50;2.70;;;;;;;6.44;28.91;100766.11;106680;1256;71819;-75
2022/01/21 12:46:35;;;;;;;9.20;3.50;;;;;;;6.59;28.69;100767.40;106342;1254;745923;-84
2022/01/21 12:49:38;;;;;;;9.20;2.90;;;;;;;6.26;28.75;100763.84;106845;1254;75387;-81
2022/01/21 12:52:50;;;;;;;11.20;3.50;;;;;;;5.39;29.25;100770.52;107344;1254;59062;-83